sensor_id;sensor_type;location;lat;lon;timestamp;temperature;humidity
25668;DHT22;18003;-33.830;151.202;2023-05-17T00:02:18;16.10;99.90
25668;DHT22;18003;-33.830;151.202;2023-05-17T00:04:48;16.10;99.90
25668;DHT22;18003;-33.830;151.202;2023-05-17T00:07:18;16.10;99.90
25668;DHT22;18003;-33.830;151.202;2023-05-17T00:09:48;16.10;99.90
25668;DHT22;18003;-33.830;151.202;2023-05-17T00:12:19;16.10;99.90
25668;DHT22;18003;-33.830;151.202;2023-05-17T00:14:49;16.10;99.90
25668;DHT22;18003;-33.830;151.202;2023-05-17T00:17:20;16.10;99.90
25668;DHT22;18003;-33.830;151.202;2023-05-17T00:20:08;16.10;99.90
25668;DHT22;18003;-33.830;151.202;2023-05-17T00:22:38;16.10;99.90
25668;DHT22;18003;-33.830;151.202;2023-05-17T00:25:10;16.10;99.90
25668;DHT22;18003;-33.830;151.202;2023-05-17T00:27:40;16.10;99.90
25668;DHT22;18003;-33.830;151.202;2023-05-17T00:30:10;16.10;99.90
25668;DHT22;18003;-33.830;151.202;2023-05-17T00:32:40;16.10;99.90
25668;DHT22;18003;-33.830;151.202;2023-05-17T00:35:10;16.10;99.90
25668;DHT22;18003;-33.830;151.202;2023-05-17T00:37:40;16.10;99.90
25668;DHT22;18003;-33.830;151.202;2023-05-17T00:40:12;16.10;99.90
25668;DHT22;18003;-33.830;151.202;2023-05-17T00:42:41;16.10;99.90
25668;DHT22;18003;-33.830;151.202;2023-05-17T00:45:12;16.10;99.90
25668;DHT22;18003;-33.830;151.202;2023-05-17T00:47:42;16.10;99.90
25668;DHT22;18003;-33.830;151.202;2023-05-17T00:50:12;16.10;99.90
25668;DHT22;18003;-33.830;151.202;2023-05-17T00:52:42;16.10;99.90
25668;DHT22;18003;-33.830;151.202;2023-05-17T00:55:12;16.10;99.90
25668;DHT22;18003;-33.830;151.202;2023-05-17T00:57:42;16.10;99.90
25668;DHT22;18003;-33.830;151.202;2023-05-17T01:00:13;16.10;99.90
25668;DHT22;18003;-33.830;151.202;2023-05-17T01:02:43;16.20;99.90
25668;DHT22;18003;-33.830;151.202;2023-05-17T01:05:14;16.20;99.90
25668;DHT22;18003;-33.830;151.202;2023-05-17T01:07:44;16.20;99.90
25668;DHT22;18003;-33.830;151.202;2023-05-17T01:10:14;16.20;99.90
25668;DHT22;18003;-33.830;151.202;2023-05-17T01:15:30;16.10;99.90
25668;DHT22;18003;-33.830;151.202;2023-05-17T01:18:43;16.10;99.90
25668;DHT22;18003;-33.830;151.202;2023-05-17T01:21:29;16.10;99.90
25668;DHT22;18003;-33.830;151.202;2023-05-17T01:23:58;16.20;99.90
25668;DHT22;18003;-33.830;151.202;2023-05-17T01:26:40;16.20;99.90
25668;DHT22;18003;-33.830;151.202;2023-05-17T01:29:13;16.20;99.90
25668;DHT22;18003;-33.830;151.202;2023-05-17T01:31:42;16.10;99.90
25668;DHT22;18003;-33.830;151.202;2023-05-17T01:34:13;16.10;99.90
25668;DHT22;18003;-33.830;151.202;2023-05-17T01:36:43;16.20;99.90
25668;DHT22;18003;-33.830;151.202;2023-05-17T01:39:13;16.20;99.90
25668;DHT22;18003;-33.830;151.202;2023-05-17T01:41:45;16.20;99.90
25668;DHT22;18003;-33.830;151.202;2023-05-17T01:44:32;16.20;99.90
25668;DHT22;18003;-33.830;151.202;2023-05-17T01:47:01;16.20;99.90
25668;DHT22;18003;-33.830;151.202;2023-05-17T01:49:31;16.20;99.90
25668;DHT22;18003;-33.830;151.202;2023-05-17T01:54:46;16.30;99.90
25668;DHT22;18003;-33.830;151.202;2023-05-17T01:57:11;16.20;99.90
25668;DHT22;18003;-33.830;151.202;2023-05-17T01:59:43;16.30;99.90
25668;DHT22;18003;-33.830;151.202;2023-05-17T02:02:12;16.30;99.90
25668;DHT22;18003;-33.830;151.202;2023-05-17T02:04:42;16.30;99.90
25668;DHT22;18003;-33.830;151.202;2023-05-17T02:07:12;16.30;99.90
25668;DHT22;18003;-33.830;151.202;2023-05-17T02:09:42;16.30;99.90
25668;DHT22;18003;-33.830;151.202;2023-05-17T02:12:12;16.30;99.90
25668;DHT22;18003;-33.830;151.202;2023-05-17T02:14:46;16.20;99.90
25668;DHT22;18003;-33.830;151.202;2023-05-17T02:17:16;16.30;99.90
25668;DHT22;18003;-33.830;151.202;2023-05-17T02:19:47;16.30;99.90
25668;DHT22;18003;-33.830;151.202;2023-05-17T02:22:17;16.30;99.90
25668;DHT22;18003;-33.830;151.202;2023-05-17T02:24:47;16.30;99.90
25668;DHT22;18003;-33.830;151.202;2023-05-17T02:27:16;16.30;99.90
25668;DHT22;18003;-33.830;151.202;2023-05-17T02:29:46;16.30;99.90
25668;DHT22;18003;-33.830;151.202;2023-05-17T02:32:16;16.30;99.90
25668;DHT22;18003;-33.830;151.202;2023-05-17T02:34:46;16.30;99.90
25668;DHT22;18003;-33.830;151.202;2023-05-17T02:37:17;16.30;99.90
25668;DHT22;18003;-33.830;151.202;2023-05-17T02:39:47;16.30;99.90
25668;DHT22;18003;-33.830;151.202;2023-05-17T02:42:17;16.30;99.90
25668;DHT22;18003;-33.830;151.202;2023-05-17T02:44:47;16.30;99.90
25668;DHT22;18003;-33.830;151.202;2023-05-17T02:47:18;16.30;99.90
25668;DHT22;18003;-33.830;151.202;2023-05-17T02:49:49;16.30;99.90
25668;DHT22;18003;-33.830;151.202;2023-05-17T02:52:19;16.30;99.90
25668;DHT22;18003;-33.830;151.202;2023-05-17T02:54:49;16.30;99.90
25668;DHT22;18003;-33.830;151.202;2023-05-17T02:57:19;16.30;99.90
25668;DHT22;18003;-33.830;151.202;2023-05-17T02:59:49;16.30;99.90
25668;DHT22;18003;-33.830;151.202;2023-05-17T03:02:19;16.30;99.90
25668;DHT22;18003;-33.830;151.202;2023-05-17T03:04:49;16.30;99.90
25668;DHT22;18003;-33.830;151.202;2023-05-17T03:07:19;16.30;99.90
25668;DHT22;18003;-33.830;151.202;2023-05-17T03:09:49;16.30;99.90
25668;DHT22;18003;-33.830;151.202;2023-05-17T03:12:19;16.30;99.90
25668;DHT22;18003;-33.830;151.202;2023-05-17T03:14:50;16.30;99.90
25668;DHT22;18003;-33.830;151.202;2023-05-17T03:17:20;16.30;99.90
25668;DHT22;18003;-33.830;151.202;2023-05-17T03:19:50;16.30;99.90
25668;DHT22;18003;-33.830;151.202;2023-05-17T03:22:20;16.30;99.90
25668;DHT22;18003;-33.830;151.202;2023-05-17T03:24:50;16.30;99.90
25668;DHT22;18003;-33.830;151.202;2023-05-17T03:27:20;16.30;99.90
25668;DHT22;18003;-33.830;151.202;2023-05-17T03:29:50;16.30;99.90
25668;DHT22;18003;-33.830;151.202;2023-05-17T03:32:20;16.30;99.90
25668;DHT22;18003;-33.830;151.202;2023-05-17T03:34:50;16.30;99.90
25668;DHT22;18003;-33.830;151.202;2023-05-17T03:37:20;16.30;99.90
25668;DHT22;18003;-33.830;151.202;2023-05-17T03:39:50;16.30;99.90
25668;DHT22;18003;-33.830;151.202;2023-05-17T03:42:20;16.30;99.90
25668;DHT22;18003;-33.830;151.202;2023-05-17T03:44:50;16.30;99.90
25668;DHT22;18003;-33.830;151.202;2023-05-17T03:47:21;16.30;99.90
25668;DHT22;18003;-33.830;151.202;2023-05-17T03:49:51;16.30;99.90
25668;DHT22;18003;-33.830;151.202;2023-05-17T03:52:21;16.30;99.90
25668;DHT22;18003;-33.830;151.202;2023-05-17T03:54:51;16.30;99.90
25668;DHT22;18003;-33.830;151.202;2023-05-17T03:57:21;16.40;99.90
25668;DHT22;18003;-33.830;151.202;2023-05-17T03:59:51;16.40;99.90
25668;DHT22;18003;-33.830;151.202;2023-05-17T04:02:21;16.40;99.90
25668;DHT22;18003;-33.830;151.202;2023-05-17T04:04:51;16.40;99.90
25668;DHT22;18003;-33.830;151.202;2023-05-17T04:07:21;16.40;99.90
25668;DHT22;18003;-33.830;151.202;2023-05-17T04:09:51;16.40;99.90
25668;DHT22;18003;-33.830;151.202;2023-05-17T04:12:22;16.30;99.90
25668;DHT22;18003;-33.830;151.202;2023-05-17T04:14:52;16.30;99.90
25668;DHT22;18003;-33.830;151.202;2023-05-17T04:17:22;16.30;99.90
25668;DHT22;18003;-33.830;151.202;2023-05-17T04:19:52;16.30;99.90
25668;DHT22;18003;-33.830;151.202;2023-05-17T04:22:22;16.30;99.90
25668;DHT22;18003;-33.830;151.202;2023-05-17T04:24:52;16.30;99.90
25668;DHT22;18003;-33.830;151.202;2023-05-17T04:27:22;16.30;99.90
25668;DHT22;18003;-33.830;151.202;2023-05-17T04:29:52;16.30;99.90
25668;DHT22;18003;-33.830;151.202;2023-05-17T04:32:22;16.30;99.90
25668;DHT22;18003;-33.830;151.202;2023-05-17T04:34:52;16.40;99.90
25668;DHT22;18003;-33.830;151.202;2023-05-17T04:37:23;16.30;99.90
25668;DHT22;18003;-33.830;151.202;2023-05-17T04:39:53;16.40;99.90
25668;DHT22;18003;-33.830;151.202;2023-05-17T04:42:23;16.40;99.90
25668;DHT22;18003;-33.830;151.202;2023-05-17T04:44:53;16.40;99.90
25668;DHT22;18003;-33.830;151.202;2023-05-17T04:47:24;16.40;99.90
25668;DHT22;18003;-33.830;151.202;2023-05-17T04:49:55;16.40;99.90
25668;DHT22;18003;-33.830;151.202;2023-05-17T04:52:25;16.40;99.90
25668;DHT22;18003;-33.830;151.202;2023-05-17T04:54:55;16.40;99.90
25668;DHT22;18003;-33.830;151.202;2023-05-17T04:57:25;16.40;99.90
25668;DHT22;18003;-33.830;151.202;2023-05-17T04:59:55;16.40;99.90
25668;DHT22;18003;-33.830;151.202;2023-05-17T05:02:25;16.30;99.90
25668;DHT22;18003;-33.830;151.202;2023-05-17T05:04:55;16.30;99.90
25668;DHT22;18003;-33.830;151.202;2023-05-17T05:07:25;16.40;99.90
25668;DHT22;18003;-33.830;151.202;2023-05-17T05:09:55;16.30;99.90
25668;DHT22;18003;-33.830;151.202;2023-05-17T05:12:25;16.40;99.90
25668;DHT22;18003;-33.830;151.202;2023-05-17T05:14:55;16.30;99.90
25668;DHT22;18003;-33.830;151.202;2023-05-17T05:17:25;16.40;99.90
25668;DHT22;18003;-33.830;151.202;2023-05-17T05:19:55;16.40;99.90
25668;DHT22;18003;-33.830;151.202;2023-05-17T05:22:25;16.40;99.90
25668;DHT22;18003;-33.830;151.202;2023-05-17T05:24:55;16.40;99.90
25668;DHT22;18003;-33.830;151.202;2023-05-17T05:27:25;16.40;99.90
25668;DHT22;18003;-33.830;151.202;2023-05-17T05:29:56;16.30;99.90
25668;DHT22;18003;-33.830;151.202;2023-05-17T05:32:26;16.40;99.90
25668;DHT22;18003;-33.830;151.202;2023-05-17T05:34:56;16.40;99.90
25668;DHT22;18003;-33.830;151.202;2023-05-17T05:37:26;16.40;99.90
25668;DHT22;18003;-33.830;151.202;2023-05-17T05:39:56;16.40;99.90
25668;DHT22;18003;-33.830;151.202;2023-05-17T05:42:26;16.40;99.90
25668;DHT22;18003;-33.830;151.202;2023-05-17T05:44:56;16.40;99.90
25668;DHT22;18003;-33.830;151.202;2023-05-17T05:47:26;16.40;99.90
25668;DHT22;18003;-33.830;151.202;2023-05-17T05:49:56;16.40;99.90
25668;DHT22;18003;-33.830;151.202;2023-05-17T05:52:26;16.40;99.90
25668;DHT22;18003;-33.830;151.202;2023-05-17T05:54:56;16.30;99.90
25668;DHT22;18003;-33.830;151.202;2023-05-17T05:57:26;16.30;99.90
25668;DHT22;18003;-33.830;151.202;2023-05-17T05:59:57;16.30;99.90
25668;DHT22;18003;-33.830;151.202;2023-05-17T06:02:27;16.30;99.90
25668;DHT22;18003;-33.830;151.202;2023-05-17T06:04:57;16.40;99.90
25668;DHT22;18003;-33.830;151.202;2023-05-17T06:07:27;16.40;99.90
25668;DHT22;18003;-33.830;151.202;2023-05-17T06:09:57;16.40;99.90
25668;DHT22;18003;-33.830;151.202;2023-05-17T06:12:30;16.30;99.90
25668;DHT22;18003;-33.830;151.202;2023-05-17T06:15:03;16.40;99.90
25668;DHT22;18003;-33.830;151.202;2023-05-17T06:17:33;16.40;99.90
25668;DHT22;18003;-33.830;151.202;2023-05-17T06:20:03;16.30;99.90
25668;DHT22;18003;-33.830;151.202;2023-05-17T06:22:33;16.40;99.90
25668;DHT22;18003;-33.830;151.202;2023-05-17T06:25:04;16.40;99.90
25668;DHT22;18003;-33.830;151.202;2023-05-17T06:27:34;16.30;99.90
25668;DHT22;18003;-33.830;151.202;2023-05-17T06:30:05;16.30;99.90
25668;DHT22;18003;-33.830;151.202;2023-05-17T06:32:35;16.40;99.90
25668;DHT22;18003;-33.830;151.202;2023-05-17T06:35:06;16.40;99.90
25668;DHT22;18003;-33.830;151.202;2023-05-17T06:37:36;16.30;99.90
25668;DHT22;18003;-33.830;151.202;2023-05-17T06:40:07;16.30;99.90
25668;DHT22;18003;-33.830;151.202;2023-05-17T06:42:37;16.30;99.90
25668;DHT22;18003;-33.830;151.202;2023-05-17T06:45:09;16.30;99.90
25668;DHT22;18003;-33.830;151.202;2023-05-17T06:47:39;16.30;99.90
25668;DHT22;18003;-33.830;151.202;2023-05-17T06:50:09;16.30;99.90
25668;DHT22;18003;-33.830;151.202;2023-05-17T06:52:39;16.30;99.90
25668;DHT22;18003;-33.830;151.202;2023-05-17T06:55:11;16.30;99.90
25668;DHT22;18003;-33.830;151.202;2023-05-17T06:57:41;16.30;99.90
25668;DHT22;18003;-33.830;151.202;2023-05-17T07:00:11;16.30;99.90
25668;DHT22;18003;-33.830;151.202;2023-05-17T07:02:41;16.30;99.90
25668;DHT22;18003;-33.830;151.202;2023-05-17T07:05:11;16.30;99.90
25668;DHT22;18003;-33.830;151.202;2023-05-17T07:07:41;16.30;99.90
25668;DHT22;18003;-33.830;151.202;2023-05-17T07:10:11;16.30;99.90
25668;DHT22;18003;-33.830;151.202;2023-05-17T07:12:42;16.30;99.90
25668;DHT22;18003;-33.830;151.202;2023-05-17T07:15:12;16.30;99.90
25668;DHT22;18003;-33.830;151.202;2023-05-17T07:17:42;16.30;99.90
25668;DHT22;18003;-33.830;151.202;2023-05-17T07:20:13;16.30;99.90
25668;DHT22;18003;-33.830;151.202;2023-05-17T07:22:50;16.30;99.90
25668;DHT22;18003;-33.830;151.202;2023-05-17T07:25:18;16.30;99.90
25668;DHT22;18003;-33.830;151.202;2023-05-17T07:27:48;16.20;99.90
25668;DHT22;18003;-33.830;151.202;2023-05-17T07:30:19;16.20;99.90
25668;DHT22;18003;-33.830;151.202;2023-05-17T07:32:49;16.20;99.90
25668;DHT22;18003;-33.830;151.202;2023-05-17T07:35:19;16.20;99.90
25668;DHT22;18003;-33.830;151.202;2023-05-17T07:37:49;16.20;99.90
25668;DHT22;18003;-33.830;151.202;2023-05-17T07:40:19;16.20;99.90
25668;DHT22;18003;-33.830;151.202;2023-05-17T07:42:49;16.20;99.90
25668;DHT22;18003;-33.830;151.202;2023-05-17T07:45:20;16.20;99.90
25668;DHT22;18003;-33.830;151.202;2023-05-17T07:47:50;16.20;99.90
25668;DHT22;18003;-33.830;151.202;2023-05-17T07:50:20;16.20;99.90
25668;DHT22;18003;-33.830;151.202;2023-05-17T07:52:50;16.20;99.90
25668;DHT22;18003;-33.830;151.202;2023-05-17T07:55:20;16.20;99.90
25668;DHT22;18003;-33.830;151.202;2023-05-17T07:57:50;16.20;99.90
25668;DHT22;18003;-33.830;151.202;2023-05-17T08:00:20;16.20;99.90
25668;DHT22;18003;-33.830;151.202;2023-05-17T08:02:51;16.20;99.90
25668;DHT22;18003;-33.830;151.202;2023-05-17T08:05:21;16.20;99.90
25668;DHT22;18003;-33.830;151.202;2023-05-17T08:07:51;16.20;99.90
25668;DHT22;18003;-33.830;151.202;2023-05-17T08:10:21;16.20;99.90
25668;DHT22;18003;-33.830;151.202;2023-05-17T08:12:51;16.10;99.90
25668;DHT22;18003;-33.830;151.202;2023-05-17T08:15:21;16.10;99.90
25668;DHT22;18003;-33.830;151.202;2023-05-17T08:17:51;16.20;99.90
25668;DHT22;18003;-33.830;151.202;2023-05-17T08:20:21;16.20;99.90
25668;DHT22;18003;-33.830;151.202;2023-05-17T08:22:51;16.20;99.90
25668;DHT22;18003;-33.830;151.202;2023-05-17T08:25:22;16.20;99.90
25668;DHT22;18003;-33.830;151.202;2023-05-17T08:27:52;16.20;99.90
25668;DHT22;18003;-33.830;151.202;2023-05-17T08:30:22;16.20;99.90
25668;DHT22;18003;-33.830;151.202;2023-05-17T08:32:52;16.20;99.90
25668;DHT22;18003;-33.830;151.202;2023-05-17T08:35:23;16.20;99.90
25668;DHT22;18003;-33.830;151.202;2023-05-17T08:37:53;16.20;99.90
25668;DHT22;18003;-33.830;151.202;2023-05-17T08:40:23;16.20;99.90
25668;DHT22;18003;-33.830;151.202;2023-05-17T08:42:53;16.20;99.90
25668;DHT22;18003;-33.830;151.202;2023-05-17T08:45:23;16.30;99.90
25668;DHT22;18003;-33.830;151.202;2023-05-17T08:47:54;16.20;99.90
25668;DHT22;18003;-33.830;151.202;2023-05-17T08:50:24;16.20;99.90
25668;DHT22;18003;-33.830;151.202;2023-05-17T08:52:56;16.20;99.90
25668;DHT22;18003;-33.830;151.202;2023-05-17T08:55:28;16.20;99.90
25668;DHT22;18003;-33.830;151.202;2023-05-17T08:57:59;16.20;99.90
25668;DHT22;18003;-33.830;151.202;2023-05-17T09:00:30;16.20;99.90
25668;DHT22;18003;-33.830;151.202;2023-05-17T09:03:00;16.20;99.90
25668;DHT22;18003;-33.830;151.202;2023-05-17T09:05:30;16.20;99.90
25668;DHT22;18003;-33.830;151.202;2023-05-17T09:08:00;16.20;99.90
25668;DHT22;18003;-33.830;151.202;2023-05-17T09:10:30;16.20;99.90
25668;DHT22;18003;-33.830;151.202;2023-05-17T09:13:00;16.20;99.90
25668;DHT22;18003;-33.830;151.202;2023-05-17T09:15:32;16.20;99.90
25668;DHT22;18003;-33.830;151.202;2023-05-17T09:18:02;16.20;99.90
25668;DHT22;18003;-33.830;151.202;2023-05-17T09:20:32;16.20;99.90
25668;DHT22;18003;-33.830;151.202;2023-05-17T09:23:03;16.20;99.90
25668;DHT22;18003;-33.830;151.202;2023-05-17T09:25:34;16.20;99.90
25668;DHT22;18003;-33.830;151.202;2023-05-17T09:28:07;16.20;99.90
25668;DHT22;18003;-33.830;151.202;2023-05-17T09:30:39;16.20;99.90
25668;DHT22;18003;-33.830;151.202;2023-05-17T09:33:10;16.20;99.90
25668;DHT22;18003;-33.830;151.202;2023-05-17T09:35:45;16.20;99.90
25668;DHT22;18003;-33.830;151.202;2023-05-17T09:38:15;16.20;99.90
25668;DHT22;18003;-33.830;151.202;2023-05-17T09:40:46;16.20;99.90
25668;DHT22;18003;-33.830;151.202;2023-05-17T09:43:21;16.20;99.90
25668;DHT22;18003;-33.830;151.202;2023-05-17T09:45:57;16.20;99.90
25668;DHT22;18003;-33.830;151.202;2023-05-17T09:48:19;16.10;99.90
25668;DHT22;18003;-33.830;151.202;2023-05-17T09:50:51;16.10;99.90
25668;DHT22;18003;-33.830;151.202;2023-05-17T09:53:27;16.10;99.90
25668;DHT22;18003;-33.830;151.202;2023-05-17T09:55:59;16.10;99.90
25668;DHT22;18003;-33.830;151.202;2023-05-17T09:58:28;16.20;99.90
25668;DHT22;18003;-33.830;151.202;2023-05-17T10:01:03;16.20;99.90
25668;DHT22;18003;-33.830;151.202;2023-05-17T10:03:37;16.20;99.90
25668;DHT22;18003;-33.830;151.202;2023-05-17T10:06:08;16.20;99.90
25668;DHT22;18003;-33.830;151.202;2023-05-17T10:08:37;16.10;99.90
25668;DHT22;18003;-33.830;151.202;2023-05-17T10:11:16;16.20;99.90
25668;DHT22;18003;-33.830;151.202;2023-05-17T10:13:46;16.20;99.90
25668;DHT22;18003;-33.830;151.202;2023-05-17T10:16:18;16.20;99.90
25668;DHT22;18003;-33.830;151.202;2023-05-17T10:18:50;16.20;99.90
25668;DHT22;18003;-33.830;151.202;2023-05-17T10:21:20;16.20;99.90
25668;DHT22;18003;-33.830;151.202;2023-05-17T10:23:51;16.20;99.90
25668;DHT22;18003;-33.830;151.202;2023-05-17T10:26:22;16.20;99.90
25668;DHT22;18003;-33.830;151.202;2023-05-17T10:28:52;16.20;99.90
25668;DHT22;18003;-33.830;151.202;2023-05-17T10:31:23;16.20;99.90
25668;DHT22;18003;-33.830;151.202;2023-05-17T10:33:54;16.20;99.90
25668;DHT22;18003;-33.830;151.202;2023-05-17T10:36:25;16.20;99.90
25668;DHT22;18003;-33.830;151.202;2023-05-17T10:38:55;16.20;99.90
25668;DHT22;18003;-33.830;151.202;2023-05-17T10:41:27;16.10;99.90
25668;DHT22;18003;-33.830;151.202;2023-05-17T10:43:56;16.10;99.90
25668;DHT22;18003;-33.830;151.202;2023-05-17T10:46:28;16.10;99.90
25668;DHT22;18003;-33.830;151.202;2023-05-17T10:48:59;16.10;99.90
25668;DHT22;18003;-33.830;151.202;2023-05-17T10:51:34;16.10;99.90
25668;DHT22;18003;-33.830;151.202;2023-05-17T10:54:14;16.10;99.90
25668;DHT22;18003;-33.830;151.202;2023-05-17T10:56:52;16.20;99.90
25668;DHT22;18003;-33.830;151.202;2023-05-17T10:59:24;16.20;99.90
25668;DHT22;18003;-33.830;151.202;2023-05-17T11:02:05;16.20;99.90
25668;DHT22;18003;-33.830;151.202;2023-05-17T11:04:42;16.10;99.90
25668;DHT22;18003;-33.830;151.202;2023-05-17T11:07:23;16.10;99.90
25668;DHT22;18003;-33.830;151.202;2023-05-17T11:12:54;16.10;99.90
25668;DHT22;18003;-33.830;151.202;2023-05-17T11:15:11;16.10;99.90
25668;DHT22;18003;-33.830;151.202;2023-05-17T11:17:47;16.10;99.90
25668;DHT22;18003;-33.830;151.202;2023-05-17T11:23:03;16.10;99.90
25668;DHT22;18003;-33.830;151.202;2023-05-17T11:25:37;16.10;99.90
25668;DHT22;18003;-33.830;151.202;2023-05-17T11:28:18;16.10;99.90
25668;DHT22;18003;-33.830;151.202;2023-05-17T11:30:48;16.20;99.90
25668;DHT22;18003;-33.830;151.202;2023-05-17T11:33:35;16.10;99.90
25668;DHT22;18003;-33.830;151.202;2023-05-17T11:35:54;16.10;99.90
25668;DHT22;18003;-33.830;151.202;2023-05-17T11:38:28;16.10;99.90
25668;DHT22;18003;-33.830;151.202;2023-05-17T11:41:00;16.10;99.90
25668;DHT22;18003;-33.830;151.202;2023-05-17T11:43:30;16.10;99.90
25668;DHT22;18003;-33.830;151.202;2023-05-17T11:46:02;16.10;99.90
25668;DHT22;18003;-33.830;151.202;2023-05-17T11:48:33;16.10;99.90
25668;DHT22;18003;-33.830;151.202;2023-05-17T11:51:04;16.10;99.90
25668;DHT22;18003;-33.830;151.202;2023-05-17T11:53:36;16.10;99.90
25668;DHT22;18003;-33.830;151.202;2023-05-17T11:56:06;16.10;99.90
25668;DHT22;18003;-33.830;151.202;2023-05-17T11:58:37;16.10;99.90
25668;DHT22;18003;-33.830;151.202;2023-05-17T12:01:07;16.10;99.90
25668;DHT22;18003;-33.830;151.202;2023-05-17T12:03:37;16.00;99.90
25668;DHT22;18003;-33.830;151.202;2023-05-17T12:06:15;16.10;99.90
25668;DHT22;18003;-33.830;151.202;2023-05-17T12:08:45;16.10;99.90
25668;DHT22;18003;-33.830;151.202;2023-05-17T12:11:15;16.10;99.90
25668;DHT22;18003;-33.830;151.202;2023-05-17T12:13:46;16.00;99.90
25668;DHT22;18003;-33.830;151.202;2023-05-17T12:16:20;16.00;99.90
25668;DHT22;18003;-33.830;151.202;2023-05-17T12:18:50;16.00;99.90
25668;DHT22;18003;-33.830;151.202;2023-05-17T12:21:20;16.00;99.90
25668;DHT22;18003;-33.830;151.202;2023-05-17T12:23:53;16.00;99.90
25668;DHT22;18003;-33.830;151.202;2023-05-17T12:26:23;16.00;99.90
25668;DHT22;18003;-33.830;151.202;2023-05-17T12:28:55;16.00;99.90
25668;DHT22;18003;-33.830;151.202;2023-05-17T12:31:27;16.00;99.90
25668;DHT22;18003;-33.830;151.202;2023-05-17T12:33:57;16.00;99.90
25668;DHT22;18003;-33.830;151.202;2023-05-17T12:36:29;16.00;99.90
25668;DHT22;18003;-33.830;151.202;2023-05-17T12:39:01;16.00;99.90
25668;DHT22;18003;-33.830;151.202;2023-05-17T12:41:33;16.00;99.90
25668;DHT22;18003;-33.830;151.202;2023-05-17T12:44:05;16.00;99.90
25668;DHT22;18003;-33.830;151.202;2023-05-17T12:46:35;16.00;99.90
25668;DHT22;18003;-33.830;151.202;2023-05-17T12:49:09;16.00;99.90
25668;DHT22;18003;-33.830;151.202;2023-05-17T12:51:43;16.00;99.90
25668;DHT22;18003;-33.830;151.202;2023-05-17T12:54:24;16.00;99.90
25668;DHT22;18003;-33.830;151.202;2023-05-17T12:56:45;15.90;99.90
25668;DHT22;18003;-33.830;151.202;2023-05-17T12:59:16;15.90;99.90
25668;DHT22;18003;-33.830;151.202;2023-05-17T13:01:49;16.00;99.90
25668;DHT22;18003;-33.830;151.202;2023-05-17T13:04:18;16.00;99.90
25668;DHT22;18003;-33.830;151.202;2023-05-17T13:06:53;16.00;99.90
25668;DHT22;18003;-33.830;151.202;2023-05-17T13:09:24;15.90;99.90
25668;DHT22;18003;-33.830;151.202;2023-05-17T13:12:00;15.90;99.90
25668;DHT22;18003;-33.830;151.202;2023-05-17T13:14:41;15.90;99.90
25668;DHT22;18003;-33.830;151.202;2023-05-17T13:19:46;15.90;99.90
25668;DHT22;18003;-33.830;151.202;2023-05-17T13:22:16;15.90;99.90
25668;DHT22;18003;-33.830;151.202;2023-05-17T13:24:46;15.80;99.90
25668;DHT22;18003;-33.830;151.202;2023-05-17T13:27:16;15.90;99.90
25668;DHT22;18003;-33.830;151.202;2023-05-17T13:29:46;15.80;99.90
25668;DHT22;18003;-33.830;151.202;2023-05-17T13:32:16;15.80;99.90
25668;DHT22;18003;-33.830;151.202;2023-05-17T13:34:46;15.80;99.90
25668;DHT22;18003;-33.830;151.202;2023-05-17T13:37:16;15.80;99.90
25668;DHT22;18003;-33.830;151.202;2023-05-17T13:39:46;15.80;99.90
25668;DHT22;18003;-33.830;151.202;2023-05-17T13:42:16;15.80;99.90
25668;DHT22;18003;-33.830;151.202;2023-05-17T13:44:47;15.80;99.90
25668;DHT22;18003;-33.830;151.202;2023-05-17T13:47:17;15.80;99.90
25668;DHT22;18003;-33.830;151.202;2023-05-17T13:49:47;15.80;99.90
25668;DHT22;18003;-33.830;151.202;2023-05-17T13:52:17;15.80;99.90
25668;DHT22;18003;-33.830;151.202;2023-05-17T13:54:47;15.80;99.90
25668;DHT22;18003;-33.830;151.202;2023-05-17T13:57:17;15.80;99.90
25668;DHT22;18003;-33.830;151.202;2023-05-17T13:59:47;15.80;99.90
25668;DHT22;18003;-33.830;151.202;2023-05-17T14:02:17;15.80;99.90
25668;DHT22;18003;-33.830;151.202;2023-05-17T14:04:47;15.70;99.90
25668;DHT22;18003;-33.830;151.202;2023-05-17T14:07:17;15.70;99.90
25668;DHT22;18003;-33.830;151.202;2023-05-17T14:09:47;15.70;99.90
25668;DHT22;18003;-33.830;151.202;2023-05-17T14:12:17;15.70;99.90
25668;DHT22;18003;-33.830;151.202;2023-05-17T14:14:47;15.70;99.90
25668;DHT22;18003;-33.830;151.202;2023-05-17T14:17:17;15.70;99.90
25668;DHT22;18003;-33.830;151.202;2023-05-17T14:19:47;15.70;99.90
25668;DHT22;18003;-33.830;151.202;2023-05-17T14:22:17;15.70;99.90
25668;DHT22;18003;-33.830;151.202;2023-05-17T14:24:47;15.70;99.90
25668;DHT22;18003;-33.830;151.202;2023-05-17T14:27:17;15.70;99.90
25668;DHT22;18003;-33.830;151.202;2023-05-17T14:29:47;15.70;99.90
25668;DHT22;18003;-33.830;151.202;2023-05-17T14:32:17;15.70;99.90
25668;DHT22;18003;-33.830;151.202;2023-05-17T14:34:47;15.70;99.90
25668;DHT22;18003;-33.830;151.202;2023-05-17T14:37:17;15.70;99.90
25668;DHT22;18003;-33.830;151.202;2023-05-17T14:39:48;15.70;99.90
25668;DHT22;18003;-33.830;151.202;2023-05-17T14:42:18;15.70;99.90
25668;DHT22;18003;-33.830;151.202;2023-05-17T14:44:49;15.60;99.90
25668;DHT22;18003;-33.830;151.202;2023-05-17T14:47:19;15.70;99.90
25668;DHT22;18003;-33.830;151.202;2023-05-17T14:49:49;15.70;99.90
25668;DHT22;18003;-33.830;151.202;2023-05-17T14:52:19;15.70;99.90
25668;DHT22;18003;-33.830;151.202;2023-05-17T14:54:49;15.60;99.90
25668;DHT22;18003;-33.830;151.202;2023-05-17T14:57:19;15.60;99.90
25668;DHT22;18003;-33.830;151.202;2023-05-17T14:59:49;15.60;99.90
25668;DHT22;18003;-33.830;151.202;2023-05-17T15:02:19;15.60;99.90
25668;DHT22;18003;-33.830;151.202;2023-05-17T15:04:49;15.60;99.90
25668;DHT22;18003;-33.830;151.202;2023-05-17T15:07:19;15.50;99.90
25668;DHT22;18003;-33.830;151.202;2023-05-17T15:09:49;15.60;99.90
25668;DHT22;18003;-33.830;151.202;2023-05-17T15:12:19;15.60;99.90
25668;DHT22;18003;-33.830;151.202;2023-05-17T15:14:49;15.60;99.90
25668;DHT22;18003;-33.830;151.202;2023-05-17T15:17:19;15.60;99.90
25668;DHT22;18003;-33.830;151.202;2023-05-17T15:19:49;15.60;99.90
25668;DHT22;18003;-33.830;151.202;2023-05-17T15:22:19;15.60;99.90
25668;DHT22;18003;-33.830;151.202;2023-05-17T15:24:50;15.60;99.90